createdAt,value
2019-05-11T00:00:36.342Z,36.80
2019-05-11T00:03:05.092Z,36.80
2019-05-11T00:05:33.541Z,36.80
2019-05-11T00:08:02.049Z,36.90
2019-05-11T00:10:30.557Z,36.90
2019-05-11T00:12:58.992Z,37.10
2019-05-11T00:15:27.522Z,37.10
2019-05-11T00:17:55.964Z,37.20
2019-05-11T00:20:24.457Z,37.20
2019-05-11T00:22:52.977Z,37.30
2019-05-11T00:25:21.425Z,37.30
2019-05-11T00:27:49.894Z,37.30
2019-05-11T00:30:18.431Z,37.30
2019-05-11T00:32:46.886Z,37.30
2019-05-11T00:35:15.358Z,37.40
2019-05-11T00:37:43.872Z,37.40
2019-05-11T00:40:14.657Z,37.40
2019-05-11T00:42:42.987Z,37.40
2019-05-11T00:45:11.771Z,37.40
2019-05-11T00:47:40.813Z,37.50
2019-05-11T00:50:09.694Z,37.50
2019-05-11T00:52:38.223Z,37.40
2019-05-11T00:55:07.425Z,37.40
2019-05-11T00:57:35.892Z,37.40
2019-05-11T01:00:06.682Z,37.40
2019-05-11T01:02:35.239Z,37.40
2019-05-11T01:05:04.999Z,37.50
2019-05-11T01:07:33.541Z,37.50
2019-05-11T01:10:02.039Z,37.50
2019-05-11T01:12:30.547Z,37.60
2019-05-11T01:14:58.996Z,37.70
2019-05-11T01:17:27.478Z,37.60
2019-05-11T01:19:55.930Z,37.70
2019-05-11T01:22:24.402Z,37.70
2019-05-11T01:24:52.850Z,37.70
2019-05-11T01:27:21.332Z,37.60
2019-05-11T01:29:49.782Z,37.70
2019-05-11T01:32:18.268Z,37.70
2019-05-11T01:34:46.708Z,37.60
2019-05-11T01:37:15.186Z,37.60
2019-05-11T01:39:43.659Z,37.50
2019-05-11T01:42:12.192Z,37.50
2019-05-11T01:44:40.660Z,37.60
2019-05-11T01:47:09.188Z,37.60
2019-05-11T01:49:37.659Z,37.60
2019-05-11T01:52:06.245Z,37.70
2019-05-11T01:54:34.807Z,37.80
2019-05-11T01:57:03.246Z,37.80
2019-05-11T01:59:31.798Z,37.70
2019-05-11T02:02:00.238Z,37.80
2019-05-11T02:04:28.686Z,37.80
2019-05-11T02:06:57.143Z,37.90
2019-05-11T02:09:25.600Z,38.00
2019-05-11T02:11:54.053Z,38.10
2019-05-11T02:14:25.228Z,38.20
2019-05-11T02:16:53.694Z,38.30
2019-05-11T02:19:22.137Z,38.40
2019-05-11T02:21:50.617Z,38.40
2019-05-11T02:24:19.126Z,38.70
2019-05-11T02:26:47.588Z,38.40
2019-05-11T02:29:16.100Z,38.40
2019-05-11T02:31:44.560Z,38.40
2019-05-11T02:34:13.018Z,38.40
2019-05-11T02:36:41.506Z,38.40
2019-05-11T02:39:10.072Z,38.40
2019-05-11T02:41:38.628Z,38.30
2019-05-11T02:44:07.204Z,38.40
2019-05-11T02:46:35.647Z,38.40
2019-05-11T02:49:04.192Z,38.40
2019-05-11T02:51:33.080Z,38.40
2019-05-11T02:54:02.867Z,38.50
2019-05-11T02:56:31.406Z,38.60
2019-05-11T02:58:59.870Z,38.60
2019-05-11T03:01:28.318Z,38.70
2019-05-11T03:03:56.764Z,38.70
2019-05-11T03:06:25.241Z,38.70
2019-05-11T03:08:53.751Z,38.70
2019-05-11T03:11:22.229Z,38.70
2019-05-11T03:13:50.701Z,38.60
2019-05-11T03:16:19.218Z,38.40
2019-05-11T03:18:47.650Z,38.30
2019-05-11T03:21:16.125Z,38.30
2019-05-11T03:23:44.587Z,38.40
2019-05-11T03:26:13.054Z,38.40
2019-05-11T03:28:41.562Z,38.40
2019-05-11T03:31:10.030Z,38.40
2019-05-11T03:33:38.538Z,38.40
2019-05-11T03:36:07.054Z,38.40
2019-05-11T03:38:35.596Z,38.40
2019-05-11T03:41:04.101Z,38.50
2019-05-11T03:43:32.572Z,38.70
2019-05-11T03:46:01.017Z,38.70
2019-05-11T03:48:29.460Z,38.80
2019-05-11T03:50:57.920Z,39.00
2019-05-11T03:53:26.371Z,39.00
2019-05-11T03:55:54.896Z,39.20
2019-05-11T03:58:26.215Z,39.20
2019-05-11T04:00:53.531Z,39.40
2019-05-11T04:03:21.972Z,39.50
2019-05-11T04:05:50.445Z,39.60
2019-05-11T04:08:18.973Z,39.80
2019-05-11T04:10:47.418Z,39.80
2019-05-11T04:13:15.950Z,39.80
2019-05-11T04:15:44.395Z,40.10
2019-05-11T04:18:12.834Z,40.20
2019-05-11T04:20:41.308Z,40.50
2019-05-11T04:23:09.822Z,40.50
2019-05-11T04:25:38.305Z,40.70
2019-05-11T04:28:06.741Z,40.80
2019-05-11T04:30:35.184Z,41.20
2019-05-11T04:33:03.742Z,41.30
2019-05-11T04:35:32.186Z,41.40
2019-05-11T04:38:00.632Z,41.60
2019-05-11T04:40:29.570Z,42.10
2019-05-11T04:42:58.031Z,41.80
2019-05-11T04:45:26.612Z,41.90
2019-05-11T04:47:55.054Z,41.80
2019-05-11T04:50:23.657Z,41.80
2019-05-11T04:52:52.101Z,41.90
2019-05-11T04:55:20.581Z,41.90
2019-05-11T04:57:49.026Z,41.90
2019-05-11T05:00:17.943Z,42.00
2019-05-11T05:02:46.401Z,42.10
2019-05-11T05:05:14.937Z,42.10
2019-05-11T05:07:49.036Z,42.90
2019-05-11T05:10:18.930Z,42.70
2019-05-11T05:12:50.418Z,42.70
2019-05-11T05:15:14.235Z,42.70
2019-05-11T05:17:42.902Z,42.80
2019-05-11T05:20:11.685Z,42.80
2019-05-11T05:22:40.141Z,43.00
2019-05-11T05:25:08.694Z,43.20
2019-05-11T05:27:37.137Z,43.20
2019-05-11T05:30:06.698Z,43.50
2019-05-11T05:32:35.501Z,43.90
2019-05-11T05:35:04.931Z,44.10
2019-05-11T05:37:33.390Z,44.10
2019-05-11T05:40:01.900Z,44.30
2019-05-11T05:42:30.487Z,44.60
2019-05-11T05:44:58.923Z,44.70
2019-05-11T05:47:27.382Z,44.80
2019-05-11T05:49:55.929Z,45.10
2019-05-11T05:52:24.442Z,45.10
2019-05-11T05:54:52.883Z,45.50
2019-05-11T05:57:21.347Z,45.60
2019-05-11T05:59:49.787Z,45.60
2019-05-11T06:02:18.260Z,45.90
2019-05-11T06:04:46.790Z,46.00
2019-05-11T06:07:15.263Z,46.00
2019-05-11T06:09:43.705Z,46.00
2019-05-11T06:12:12.256Z,46.20
2019-05-11T06:14:40.712Z,46.10
2019-05-11T06:17:09.193Z,46.40
2019-05-11T06:19:40.512Z,46.70
2019-05-11T06:22:08.962Z,46.80
2019-05-11T06:24:37.524Z,46.90
2019-05-11T06:27:05.963Z,47.40
2019-05-11T06:29:34.411Z,47.40
2019-05-11T06:32:02.895Z,47.30
2019-05-11T06:34:31.355Z,47.40
2019-05-11T06:36:59.808Z,47.30
2019-05-11T06:39:28.296Z,47.50
2019-05-11T06:41:56.772Z,47.40
2019-05-11T06:44:25.215Z,47.80
2019-05-11T06:46:53.762Z,47.70
2019-05-11T06:49:22.227Z,47.50
2019-05-11T06:51:50.685Z,47.70
2019-05-11T06:54:19.181Z,47.40
2019-05-11T06:56:47.632Z,47.60
2019-05-11T06:59:16.076Z,47.60
2019-05-11T07:01:44.552Z,47.50
2019-05-11T07:04:13.036Z,47.60
2019-05-11T07:06:41.493Z,48.30
2019-05-11T07:09:10.010Z,48.00
2019-05-11T07:11:38.477Z,48.00
2019-05-11T07:14:20.028Z,48.20
2019-05-11T07:16:37.120Z,48.20
2019-05-11T07:19:05.581Z,48.10
2019-05-11T07:21:34.122Z,47.90
2019-05-11T07:24:02.737Z,47.80
2019-05-11T07:26:31.181Z,47.80
2019-05-11T07:28:59.622Z,47.90
2019-05-11T07:31:28.101Z,47.80
2019-05-11T07:33:58.604Z,48.40
2019-05-11T07:36:28.265Z,48.50
2019-05-11T07:38:59.770Z,48.60
2019-05-11T07:41:29.744Z,48.90
2019-05-11T07:43:58.984Z,49.40
2019-05-11T07:46:28.751Z,49.50
2019-05-11T07:48:58.441Z,49.50
2019-05-11T07:51:28.747Z,49.80
2019-05-11T07:53:57.919Z,49.80
2019-05-11T07:56:28.527Z,49.70
2019-05-11T07:58:58.113Z,50.00
2019-05-11T08:01:28.249Z,50.30
2019-05-11T08:03:58.594Z,50.30
2019-05-11T08:06:28.584Z,50.50
2019-05-11T08:08:58.799Z,50.70
2019-05-11T08:11:30.726Z,50.90
2019-05-11T08:13:58.406Z,51.00
2019-05-11T08:16:28.598Z,51.10
2019-05-11T08:18:58.851Z,51.10
2019-05-11T08:21:28.361Z,51.10
2019-05-11T08:23:58.704Z,51.10
2019-05-11T08:26:28.235Z,51.20
2019-05-11T08:28:57.935Z,51.40
2019-05-11T08:31:27.905Z,51.40
2019-05-11T08:33:58.313Z,51.50
2019-05-11T08:36:28.871Z,51.60
2019-05-11T08:38:58.534Z,51.70
2019-05-11T08:41:28.139Z,51.90
2019-05-11T08:43:58.640Z,52.00
2019-05-11T08:46:27.955Z,52.00
2019-05-11T08:48:59.211Z,52.10
2019-05-11T08:51:28.021Z,52.10
2019-05-11T08:53:58.340Z,52.30
2019-05-11T08:56:28.954Z,52.50
2019-05-11T08:58:58.892Z,52.40
2019-05-11T09:01:28.696Z,52.40
2019-05-11T09:03:58.375Z,52.50
2019-05-11T09:06:28.395Z,52.20
2019-05-11T09:08:58.303Z,52.10
2019-05-11T09:11:28.320Z,52.10
2019-05-11T09:13:57.821Z,51.50
2019-05-11T09:16:28.913Z,52.00
2019-05-11T09:18:58.110Z,51.90
2019-05-11T09:21:28.186Z,51.60
2019-05-11T09:23:57.863Z,51.30
2019-05-11T09:26:28.641Z,50.90
2019-05-11T09:28:58.200Z,51.00
2019-05-11T09:31:27.968Z,51.00
2019-05-11T09:33:58.377Z,50.60
2019-05-11T09:36:28.505Z,50.80
2019-05-11T09:38:58.145Z,50.60
2019-05-11T09:41:28.865Z,50.50
2019-05-11T09:43:58.690Z,50.00
2019-05-11T09:46:27.917Z,49.70
2019-05-11T09:48:58.779Z,49.60
2019-05-11T09:51:28.793Z,49.10
2019-05-11T09:53:58.738Z,49.10
2019-05-11T09:56:28.779Z,49.20
2019-05-11T09:58:58.159Z,49.10
2019-05-11T10:01:26.780Z,49.30
2019-05-11T10:03:55.217Z,49.60
2019-05-11T10:06:23.687Z,49.70
2019-05-11T10:08:52.137Z,49.90
2019-05-11T10:11:20.602Z,50.10
2019-05-11T10:13:49.064Z,50.20
2019-05-11T10:16:18.036Z,50.30
2019-05-11T10:18:48.874Z,50.20
2019-05-11T10:21:18.829Z,50.50
2019-05-11T10:23:49.051Z,50.10
2019-05-11T10:26:18.635Z,50.10
2019-05-11T10:28:48.219Z,50.40
2019-05-11T10:31:18.172Z,50.50
2019-05-11T10:33:48.943Z,50.60
2019-05-11T10:36:18.899Z,50.80
2019-05-11T10:38:48.694Z,50.70
2019-05-11T10:41:18.073Z,50.50
2019-05-11T10:43:49.020Z,50.20
2019-05-11T10:46:23.051Z,50.00
2019-05-11T10:48:48.301Z,49.60
2019-05-11T10:51:18.461Z,49.70
2019-05-11T10:53:51.286Z,49.50
2019-05-11T10:56:17.948Z,49.80
2019-05-11T10:58:48.200Z,49.20
2019-05-11T11:01:18.185Z,48.40
2019-05-11T11:03:48.428Z,48.70
2019-05-11T11:06:18.914Z,48.20
2019-05-11T11:08:48.734Z,47.40
2019-05-11T11:11:18.518Z,47.40
2019-05-11T11:13:48.152Z,47.50
2019-05-11T11:16:32.814Z,47.40
2019-05-11T11:18:48.683Z,48.10
2019-05-11T11:21:22.383Z,48.50
2019-05-11T11:23:48.164Z,48.20
2019-05-11T11:26:18.464Z,48.60
2019-05-11T11:28:47.735Z,48.80
2019-05-11T11:31:18.550Z,48.60
2019-05-11T11:33:48.989Z,48.70
2019-05-11T11:36:17.964Z,48.20
2019-05-11T11:38:47.760Z,48.60
2019-05-11T11:41:18.647Z,48.00
2019-05-11T11:43:48.279Z,48.30
2019-05-11T11:46:18.794Z,48.00
2019-05-11T11:48:48.840Z,48.00
2019-05-11T11:51:18.719Z,47.80
2019-05-11T11:53:48.036Z,46.20
2019-05-11T11:56:18.921Z,43.60
2019-05-11T11:58:48.906Z,41.10
2019-05-11T12:01:18.947Z,40.80
2019-05-11T12:03:48.867Z,39.50
2019-05-11T12:06:20.382Z,39.80
2019-05-11T12:08:49.776Z,38.90
2019-05-11T12:11:18.939Z,39.00
2019-05-11T12:13:47.751Z,39.70
2019-05-11T12:16:18.080Z,39.10
2019-05-11T12:18:48.642Z,39.30
2019-05-11T12:21:18.663Z,39.60
2019-05-11T12:23:48.508Z,39.60
2019-05-11T12:26:17.860Z,39.90
2019-05-11T12:28:48.802Z,39.40
2019-05-11T12:31:18.412Z,39.30
2019-05-11T12:33:48.414Z,38.70
2019-05-11T12:36:18.719Z,38.30
2019-05-11T12:38:48.773Z,37.80
2019-05-11T12:41:19.078Z,38.00
2019-05-11T12:43:48.858Z,37.60
2019-05-11T12:46:18.866Z,37.50
2019-05-11T12:48:48.433Z,37.40
2019-05-11T12:51:18.718Z,37.20
2019-05-11T12:53:47.813Z,37.80
2019-05-11T12:56:18.717Z,38.20
2019-05-11T12:58:48.977Z,38.40
2019-05-11T13:01:18.797Z,38.70
2019-05-11T13:03:48.934Z,38.90
2019-05-11T13:06:19.093Z,38.30
2019-05-11T13:08:48.172Z,37.90
2019-05-11T13:11:18.744Z,37.90
2019-05-11T13:13:48.369Z,37.20
2019-05-11T13:16:18.502Z,37.00
2019-05-11T13:18:48.841Z,36.90
2019-05-11T13:21:18.245Z,35.90
2019-05-11T13:23:48.961Z,35.70
2019-05-11T13:26:18.018Z,35.60
2019-05-11T13:28:48.456Z,35.90
2019-05-11T13:31:18.693Z,36.10
2019-05-11T13:33:47.881Z,36.20
2019-05-11T13:36:18.557Z,36.50
2019-05-11T13:38:48.381Z,36.40
2019-05-11T13:41:18.725Z,36.50
2019-05-11T13:43:48.565Z,36.60
2019-05-11T13:46:17.978Z,36.40
2019-05-11T13:48:47.702Z,36.50
2019-05-11T13:51:18.288Z,36.50
2019-05-11T13:53:48.213Z,36.50
2019-05-11T13:56:18.299Z,36.30
2019-05-11T13:58:48.974Z,36.30
2019-05-11T14:01:18.439Z,36.40
2019-05-11T14:03:48.325Z,36.60
2019-05-11T14:06:18.365Z,36.80
2019-05-11T14:08:48.099Z,36.80
2019-05-11T14:11:18.250Z,36.90
2019-05-11T14:16:18.654Z,37.20
2019-05-11T14:18:48.875Z,37.20
2019-05-11T14:21:18.521Z,37.30
2019-05-11T14:23:48.330Z,37.10
2019-05-11T14:26:19.251Z,37.40
2019-05-11T14:28:47.940Z,37.20
2019-05-11T14:31:18.574Z,37.70
2019-05-11T14:32:21.180Z,37.20
2019-05-11T14:33:48.960Z,37.10
2019-05-11T14:36:18.302Z,36.90
2019-05-11T14:38:48.701Z,36.50
2019-05-11T14:41:18.165Z,36.00
2019-05-11T14:43:48.981Z,35.70
2019-05-11T14:46:18.131Z,35.10
2019-05-11T14:48:48.087Z,34.90
2019-05-11T14:51:17.989Z,34.80
2019-05-11T14:53:48.130Z,35.10
2019-05-11T14:56:18.995Z,35.00
2019-05-11T14:58:49.060Z,35.10
2019-05-11T15:01:18.335Z,35.10
2019-05-11T15:03:48.639Z,35.30
2019-05-11T15:06:18.921Z,35.30
2019-05-11T15:08:47.981Z,35.30
2019-05-11T15:11:18.850Z,35.40
2019-05-11T15:13:48.857Z,35.50
2019-05-11T15:16:18.674Z,35.70
2019-05-11T15:18:48.453Z,35.90
2019-05-11T15:21:18.885Z,36.00
2019-05-11T15:23:47.751Z,36.00
2019-05-11T15:26:18.515Z,36.10
2019-05-11T15:28:48.690Z,36.10
2019-05-11T15:31:21.588Z,36.30
2019-05-11T15:33:48.847Z,36.50
2019-05-11T15:36:19.221Z,36.60
2019-05-11T15:38:48.172Z,36.60
2019-05-11T15:41:17.780Z,36.80
2019-05-11T15:43:47.974Z,37.00
2019-05-11T15:46:19.512Z,37.10
2019-05-11T15:48:56.798Z,37.20
2019-05-11T15:51:18.724Z,37.40
2019-05-11T15:53:47.646Z,37.50
2019-05-11T15:56:19.152Z,37.50
2019-05-11T15:58:48.529Z,37.60
2019-05-11T16:01:18.659Z,37.70
2019-05-11T16:03:49.666Z,37.80
2019-05-11T16:06:18.532Z,37.80
2019-05-11T16:08:47.457Z,37.90
2019-05-11T16:11:18.233Z,37.40
2019-05-11T16:13:48.329Z,37.30
2019-05-11T16:16:16.563Z,37.60
2019-05-11T16:18:45.027Z,37.40
2019-05-11T16:21:13.514Z,37.60
2019-05-11T16:23:41.987Z,37.90
2019-05-11T16:26:10.531Z,38.20
2019-05-11T16:28:39.003Z,38.50
2019-05-11T16:31:09.199Z,38.90
2019-05-11T16:33:37.737Z,39.40
2019-05-11T16:36:08.815Z,39.50
2019-05-11T16:38:38.074Z,39.90
2019-05-11T16:41:08.973Z,40.10
2019-05-11T16:43:38.515Z,40.20
2019-05-11T16:46:08.688Z,40.30
2019-05-11T16:48:38.419Z,40.40
2019-05-11T16:51:08.600Z,40.50
2019-05-11T16:53:39.048Z,40.50
2019-05-11T16:56:08.424Z,40.80
2019-05-11T16:58:38.034Z,41.20
2019-05-11T17:01:08.573Z,42.00
2019-05-11T17:03:38.443Z,41.80
2019-05-11T17:06:08.284Z,41.60
2019-05-11T17:08:38.316Z,41.40
2019-05-11T17:11:08.208Z,41.30
2019-05-11T17:13:37.953Z,41.30
2019-05-11T17:16:08.628Z,41.60
2019-05-11T17:18:36.868Z,41.60
2019-05-11T17:21:07.633Z,41.70
2019-05-11T17:23:38.089Z,41.60
2019-05-11T17:26:08.523Z,41.90
2019-05-11T17:28:37.872Z,42.20
2019-05-11T17:31:09.016Z,42.50
2019-05-11T17:33:38.475Z,42.50
2019-05-11T17:36:08.422Z,42.60
2019-05-11T17:38:39.022Z,43.10
2019-05-11T17:41:08.516Z,43.30
2019-05-11T17:43:38.628Z,43.30
2019-05-11T17:46:08.038Z,43.50
2019-05-11T17:48:38.832Z,43.70
2019-05-11T17:51:20.499Z,43.80
2019-05-11T17:53:37.820Z,43.80
2019-05-11T17:56:06.549Z,43.10
2019-05-11T17:58:37.676Z,42.60
2019-05-11T18:01:05.634Z,42.50
2019-05-11T18:03:34.102Z,42.40
2019-05-11T18:06:02.696Z,42.30
2019-05-11T18:08:31.228Z,42.30
2019-05-11T18:10:59.688Z,42.20
2019-05-11T18:13:28.577Z,42.30
2019-05-11T18:15:57.775Z,42.50
2019-05-11T18:18:28.910Z,42.80
2019-05-11T18:20:57.899Z,43.10
2019-05-11T18:23:28.324Z,43.30
2019-05-11T18:25:56.822Z,43.80
2019-05-11T18:28:25.265Z,44.20
2019-05-11T18:30:53.704Z,44.20
2019-05-11T18:33:22.174Z,44.70
2019-05-11T18:35:50.785Z,45.30
2019-05-11T18:38:19.230Z,45.30
2019-05-11T18:40:48.663Z,45.70
2019-05-11T18:43:18.842Z,46.20
2019-05-11T18:45:48.831Z,47.10
2019-05-11T18:48:18.560Z,46.90
2019-05-11T18:50:49.108Z,47.00
2019-05-11T18:53:18.728Z,47.40
2019-05-11T18:55:48.658Z,47.40
2019-05-11T18:58:18.430Z,47.60
2019-05-11T19:00:48.815Z,48.00
2019-05-11T19:03:19.286Z,48.00
2019-05-11T19:05:48.166Z,47.90
2019-05-11T19:08:18.750Z,47.80
2019-05-11T19:10:48.902Z,47.00
2019-05-11T19:13:17.174Z,46.80
2019-05-11T19:15:45.658Z,46.70
2019-05-11T19:18:14.245Z,46.70
2019-05-11T19:20:45.622Z,46.50
2019-05-11T19:23:12.881Z,46.30
2019-05-11T19:25:41.370Z,46.10
2019-05-11T19:28:09.989Z,46.20
2019-05-11T19:30:38.547Z,45.80
2019-05-11T19:33:08.190Z,45.40
2019-05-11T19:35:37.832Z,45.10
2019-05-11T19:38:08.461Z,44.70
2019-05-11T19:40:38.493Z,44.30
2019-05-11T19:43:08.116Z,44.40
2019-05-11T19:45:38.362Z,44.10
2019-05-11T19:48:08.357Z,44.10
2019-05-11T19:50:38.214Z,43.90
2019-05-11T19:53:08.436Z,43.60
2019-05-11T19:55:37.248Z,43.40
2019-05-11T19:58:05.701Z,43.50
2019-05-11T20:00:34.184Z,43.50
2019-05-11T20:03:02.699Z,43.70
2019-05-11T20:05:31.498Z,43.60
2019-05-11T20:07:59.983Z,43.70
2019-05-11T20:10:28.589Z,43.90
2019-05-11T20:12:58.845Z,43.90
2019-05-11T20:15:27.600Z,44.00
2019-05-11T20:17:58.456Z,44.10
2019-05-11T20:20:28.251Z,43.70
2019-05-11T20:22:58.438Z,43.60
2019-05-11T20:25:28.867Z,43.40
2019-05-11T20:27:58.500Z,43.30
2019-05-11T20:30:27.148Z,43.40
2019-05-11T20:32:55.635Z,43.20
2019-05-11T20:35:24.214Z,43.40
2019-05-11T20:37:52.699Z,43.50
2019-05-11T20:40:21.154Z,43.10
2019-05-11T20:42:49.861Z,43.20
2019-05-11T20:45:18.931Z,43.30
2019-05-11T20:47:48.722Z,43.20
2019-05-11T20:50:18.353Z,43.30
2019-05-11T20:52:48.162Z,43.40
2019-05-11T20:55:18.273Z,43.60
2019-05-11T20:57:48.418Z,44.00
2019-05-11T21:00:18.765Z,44.00
2019-05-11T21:02:48.687Z,44.00
2019-05-11T21:05:18.260Z,44.20
2019-05-11T21:07:47.041Z,44.00
2019-05-11T21:10:15.623Z,44.10
2019-05-11T21:12:44.173Z,44.10
2019-05-11T21:15:12.783Z,43.90
2019-05-11T21:17:41.257Z,43.80
2019-05-11T21:20:10.127Z,43.70
2019-05-11T21:22:40.694Z,43.40
2019-05-11T21:25:09.921Z,43.50
2019-05-11T21:27:38.744Z,43.60
2019-05-11T21:30:09.097Z,44.00
2019-05-11T21:32:39.064Z,43.60
2019-05-11T21:35:08.912Z,42.70
2019-05-11T21:37:38.683Z,42.40
2019-05-11T21:40:08.938Z,42.30
2019-05-11T21:42:39.117Z,42.20
2019-05-11T21:45:09.610Z,42.40
2019-05-11T21:47:38.943Z,42.50
2019-05-11T21:50:09.113Z,41.40
2019-05-11T21:52:38.646Z,41.40
2019-05-11T21:55:09.475Z,41.40
2019-05-11T21:57:38.443Z,41.40
2019-05-11T22:00:09.050Z,41.50
2019-05-11T22:02:38.713Z,41.40
2019-05-11T22:05:08.740Z,41.30
2019-05-11T22:07:38.813Z,41.30
2019-05-11T22:10:08.874Z,41.10
2019-05-11T22:12:38.730Z,41.30
2019-05-11T22:15:09.096Z,41.40
2019-05-11T22:17:39.237Z,41.30
2019-05-11T22:20:08.967Z,41.40
2019-05-11T22:22:39.038Z,41.30
2019-05-11T22:25:08.988Z,41.10
2019-05-11T22:27:38.881Z,41.10
2019-05-11T22:30:08.532Z,40.90
2019-05-11T22:32:38.354Z,41.10
2019-05-11T22:35:09.354Z,41.30
2019-05-11T22:37:38.735Z,41.10
2019-05-11T22:40:08.712Z,41.00
2019-05-11T22:42:37.597Z,41.10
2019-05-11T22:45:09.812Z,41.10
2019-05-11T22:47:39.786Z,41.10
2019-05-11T22:50:09.900Z,41.00
2019-05-11T22:52:40.308Z,41.10
2019-05-11T22:55:12.089Z,41.30
2019-05-11T22:57:39.759Z,41.40
2019-05-11T23:00:11.756Z,41.50
2019-05-11T23:02:40.212Z,41.70
2019-05-11T23:05:09.425Z,41.90
2019-05-11T23:07:41.500Z,42.20
2019-05-11T23:10:09.742Z,42.20
2019-05-11T23:12:38.755Z,42.10
2019-05-11T23:15:10.273Z,42.10
2019-05-11T23:17:38.930Z,41.70
2019-05-11T23:20:07.895Z,41.60
2019-05-11T23:22:53.402Z,41.50
2019-05-11T23:25:08.686Z,41.40
2019-05-11T23:27:39.269Z,41.40
2019-05-11T23:30:08.694Z,41.40
2019-05-11T23:32:37.563Z,41.40
2019-05-11T23:35:08.837Z,41.20
2019-05-11T23:37:38.633Z,41.30
2019-05-11T23:40:09.241Z,41.30
2019-05-11T23:42:38.222Z,41.50
2019-05-11T23:45:08.400Z,41.20
2019-05-11T23:47:39.300Z,41.20
2019-05-11T23:50:08.582Z,41.30
2019-05-11T23:52:38.050Z,41.30
2019-05-11T23:55:08.403Z,41.30
2019-05-11T23:57:37.851Z,41.20
